SGCO/CIO METAR and TAF weather

Enter ICAO airport designator
Station Type Date Time Source
SGCO METAR 2019/12/14 10:00 UTC NOAA

SGCO 141000Z 09003KT CAVOK 25/22 Q1011


Station Type Date Time Source
SGCO Decoded METAR 2019/12/14 10:00 UTC NOAA

Concepcion, Paraguay (SGCO) 23-25S 057-18W 74M
Dec 14, 2019 - 05:00 AM EST / 2019.12.14 1000 UTC
Wind: from the E (090 degrees) at 3 MPH (3 KT):0
Visibility: greater than 7 mile(s):0
Temperature: 77 F (25 C)
Dew Point: 71 F (22 C)
Relative Humidity: 83%
Pressure (altimeter): 29.85 in. Hg (1011 hPa)
ob: SGCO 141000Z 09003KT CAVOK 25/22 Q1011
cycle: 10

Station Type Date Time Source
SGCO TAF 2019/12/16 06:00 UTC NOAA

TAF SGCO 160402Z 1606/1706 21015KT 5000 TSRA BKN010 FEW040CB TX26/1618Z TN22/1609Z
BECMG 1607/1610 14010KT 8000 RA BKN012
BECMG 1611/1613 18012KT 5000 TSRA BKN010 FEW040CB
BECMG 1615/1618 17010KT 8000 RA BKN020

Example: see airport list